Time;durP1;ratioP1;P1;durP2;ratioP2;P2;SDS_P1;SDS_P2;PMS_P1;PMS_P2;Temp;Humidity;BMP_temperature;BMP_pressure;BME280_temperature;BME280_humidity;BME280_pressure;Samples;Min_cycle;Max_cycle;Signal;HPM_P1;HPM_P2
2023/04/21 00:00:01;;;;;;;;;;;19.80;99.90;;;;;;5075409;28;20288;-65
2023/04/21 00:02:28;;;;;;;;;;;19.80;99.90;;;;;;5076089;28;19918;-67
2023/04/21 00:04:55;;;;;;;;;;;20.00;99.90;;;;;;5073986;28;20280;-70
2023/04/21 00:07:21;;;;;;;;;;;20.10;99.90;;;;;;5075984;28;20257;-71
2023/04/21 00:09:48;;;;;;;;;;;20.30;99.90;;;;;;5075127;28;19923;-65
2023/04/21 00:12:15;;;;;;;;;;;20.40;99.90;;;;;;5073149;28;19916;-67
2023/04/21 00:14:41;;;;;;;;;;;20.50;99.90;;;;;;5063329;28;19958;-63
2023/04/21 00:17:08;;;;;;;;;;;20.70;99.90;;;;;;5069111;28;20296;-64
2023/04/21 00:19:34;;;;;;;;;;;20.70;99.90;;;;;;5078597;28;20291;-65
2023/04/21 00:22:03;;;;;;;;;;;20.90;99.90;;;;;;5074578;28;20436;-69
2023/04/21 00:24:29;;;;;;;;;;;21.00;99.90;;;;;;5074655;28;19915;-66
2023/04/21 00:26:56;;;;;;;;;;;21.00;99.90;;;;;;5074467;28;19908;-65
2023/04/21 00:29:23;;;;;;;;;;;21.00;99.90;;;;;;5072591;28;19917;-63
2023/04/21 00:31:49;;;;;;;;;;;20.90;99.90;;;;;;5077273;28;19909;-70
2023/04/21 00:34:16;;;;;;;;;;;20.90;99.90;;;;;;5074070;28;20357;-71
2023/04/21 00:36:42;;;;;;;;;;;20.70;99.90;;;;;;5059486;28;19912;-63
2023/04/21 00:39:09;;;;;;;;;;;20.70;99.90;;;;;;5074352;28;19938;-69
2023/04/21 00:41:40;;;;;;;;;;;20.80;99.90;;;;;;5076695;28;20214;-68
2023/04/21 00:44:07;;;;;;;;;;;20.90;99.90;;;;;;5075500;28;19915;-71
2023/04/21 00:46:36;;;;;;;;;;;20.80;99.90;;;;;;5076848;28;20349;-71
2023/04/21 00:49:04;;;;;;;;;;;20.90;99.90;;;;;;5075437;28;19954;-63
2023/04/21 00:51:32;;;;;;;;;;;20.90;99.90;;;;;;5077996;28;20328;-64
2023/04/21 00:53:59;;;;;;;;;;;20.90;99.90;;;;;;5076905;28;19916;-65
2023/04/21 00:56:27;;;;;;;;;;;21.00;99.90;;;;;;5076529;28;19909;-70
2023/04/21 00:58:54;;;;;;;;;;;21.20;99.90;;;;;;5077631;28;19908;-71
2023/04/21 01:01:21;;;;;;;;;;;21.40;99.90;;;;;;5073834;28;20369;-70
2023/04/21 01:03:49;;;;;;;;;;;21.60;99.90;;;;;;5074498;28;20011;-62
2023/04/21 01:06:15;;;;;;;;;;;21.70;99.90;;;;;;5072900;28;20407;-69
2023/04/21 01:08:42;;;;;;;;;;;21.70;99.90;;;;;;5075152;28;19908;-65
2023/04/21 01:11:10;;;;;;;;;;;21.70;99.90;;;;;;5057619;28;19912;-71
2023/04/21 01:13:36;;;;;;;;;;;21.70;99.90;;;;;;5064528;28;19923;-65
2023/04/21 01:16:03;;;;;;;;;;;21.70;99.90;;;;;;5068293;28;20355;-69
2023/04/21 01:18:30;;;;;;;;;;;21.80;99.90;;;;;;5058162;28;20010;-68
2023/04/21 01:20:57;;;;;;;;;;;21.80;99.90;;;;;;5071835;28;19924;-65
2023/04/21 01:23:24;;;;;;;;;;;22.00;99.90;;;;;;5065780;28;19908;-62
2023/04/21 01:25:51;;;;;;;;;;;22.40;99.90;;;;;;5070727;28;19908;-65
2023/04/21 01:28:22;;;;;;;;;;;22.40;99.90;;;;;;5071860;28;19920;-63
2023/04/21 01:30:48;;;;;;;;;;;22.60;99.90;;;;;;5073032;28;19956;-67
2023/04/21 01:33:15;;;;;;;;;;;22.70;99.90;;;;;;5053657;28;20322;-69
2023/04/21 01:35:42;;;;;;;;;;;22.70;99.50;;;;;;5073519;28;20369;-65
2023/04/21 01:38:09;;;;;;;;;;;22.80;99.60;;;;;;5072014;28;19919;-64
2023/04/21 01:40:36;;;;;;;;;;;22.90;99.10;;;;;;5072047;28;19964;-67
2023/04/21 01:43:03;;;;;;;;;;;23.00;99.40;;;;;;5075250;28;20272;-69
2023/04/21 01:45:30;;;;;;;;;;;23.10;99.50;;;;;;5077285;28;19919;-65
2023/04/21 01:47:57;;;;;;;;;;;23.20;99.20;;;;;;5079684;28;19908;-67
2023/04/21 01:50:23;;;;;;;;;;;23.20;98.70;;;;;;5076060;28;20267;-68
2023/04/21 01:52:50;;;;;;;;;;;23.20;98.60;;;;;;5078816;28;19916;-67
2023/04/21 01:55:17;;;;;;;;;;;23.40;98.60;;;;;;5076549;28;19919;-66
2023/04/21 01:57:44;;;;;;;;;;;23.70;97.90;;;;;;5072470;28;19920;-67
2023/04/21 02:00:11;;;;;;;;;;;23.80;97.80;;;;;;5071909;28;19973;-65
2023/04/21 02:02:37;;;;;;;;;;;23.90;97.50;;;;;;5076659;28;19994;-64
2023/04/21 02:05:04;;;;;;;;;;;23.90;97.50;;;;;;5076773;28;19912;-66
2023/04/21 02:07:31;;;;;;;;;;;23.90;97.30;;;;;;5073598;28;19923;-67
2023/04/21 02:09:57;;;;;;;;;;;23.80;97.20;;;;;;5077709;28;20720;-64
2023/04/21 02:12:24;;;;;;;;;;;23.60;97.60;;;;;;5074616;28;20347;-67
2023/04/21 02:14:51;;;;;;;;;;;23.50;97.90;;;;;;5076328;28;20012;-67
2023/04/21 02:17:17;;;;;;;;;;;23.60;98.10;;;;;;5076288;28;19908;-68
2023/04/21 02:19:44;;;;;;;;;;;23.60;97.00;;;;;;5076542;28;19926;-66
2023/04/21 02:22:11;;;;;;;;;;;23.70;96.60;;;;;;5077796;28;19912;-67
2023/04/21 02:24:38;;;;;;;;;;;23.50;96.60;;;;;;5075137;28;19909;-66
2023/04/21 02:27:05;;;;;;;;;;;23.40;96.70;;;;;;5077368;28;19938;-68
2023/04/21 02:29:31;;;;;;;;;;;23.40;97.20;;;;;;5075759;28;20068;-66
2023/04/21 02:31:58;;;;;;;;;;;23.50;97.10;;;;;;5078132;28;20352;-66
2023/04/21 02:34:25;;;;;;;;;;;23.70;96.80;;;;;;5076037;28;19912;-67
2023/04/21 02:36:51;;;;;;;;;;;24.30;96.00;;;;;;5076834;28;19912;-67
2023/04/21 02:39:18;;;;;;;;;;;24.80;95.00;;;;;;5074813;28;19950;-65
2023/04/21 02:41:45;;;;;;;;;;;25.70;93.40;;;;;;5077006;28;19912;-68
2023/04/21 02:44:12;;;;;;;;;;;26.40;92.70;;;;;;5079564;28;19909;-67
2023/04/21 02:46:41;;;;;;;;;;;27.30;91.90;;;;;;5075008;28;19916;-68
2023/04/21 02:49:08;;;;;;;;;;;27.20;91.20;;;;;;5077750;28;19953;-67
2023/04/21 02:51:35;;;;;;;;;;;27.80;91.10;;;;;;5071894;28;19965;-65
2023/04/21 02:54:02;;;;;;;;;;;27.80;89.20;;;;;;5077306;28;20361;-67
2023/04/21 02:56:28;;;;;;;;;;;27.40;90.00;;;;;;5075077;28;19955;-63
2023/04/21 02:58:55;;;;;;;;;;;27.60;89.30;;;;;;5076359;28;19923;-66
2023/04/21 03:01:22;;;;;;;;;;;27.90;89.60;;;;;;5075692;28;19916;-66
2023/04/21 03:03:48;;;;;;;;;;;28.80;87.30;;;;;;5076289;28;19919;-67
2023/04/21 03:06:15;;;;;;;;;;;30.10;83.50;;;;;;5077854;28;19912;-67
2023/04/21 03:08:42;;;;;;;;;;;30.90;80.50;;;;;;5073653;28;19916;-66
2023/04/21 03:11:08;;;;;;;;;;;31.90;78.00;;;;;;5076588;28;19917;-67
2023/04/21 03:13:35;;;;;;;;;;;32.40;77.00;;;;;;5074932;28;19948;-66
2023/04/21 03:16:02;;;;;;;;;;;31.60;75.90;;;;;;5077268;28;19951;-68
2023/04/21 03:18:28;;;;;;;;;;;30.20;78.00;;;;;;5075584;28;19912;-65
2023/04/21 03:20:59;;;;;;;;;;;29.10;79.60;;;;;;5074871;28;20447;-66
2023/04/21 03:23:25;;;;;;;;;;;27.90;82.20;;;;;;5075585;28;20268;-66
2023/04/21 03:25:52;;;;;;;;;;;26.60;85.50;;;;;;5076818;28;20299;-67
2023/04/21 03:28:19;;;;;;;;;;;25.50;89.00;;;;;;5077943;28;19966;-67
2023/04/21 03:30:45;;;;;;;;;;;24.90;90.80;;;;;;5073991;28;19908;-67
2023/04/21 03:33:12;;;;;;;;;;;24.40;91.20;;;;;;5077249;28;19912;-67
2023/04/21 03:35:39;;;;;;;;;;;23.80;91.80;;;;;;5074917;28;19912;-65
2023/04/21 03:38:05;;;;;;;;;;;23.20;92.70;;;;;;5078115;28;19912;-68
2023/04/21 03:40:32;;;;;;;;;;;22.80;93.70;;;;;;5077425;28;19965;-66
2023/04/21 03:42:59;;;;;;;;;;;22.50;94.50;;;;;;5075751;28;20028;-67
2023/04/21 03:45:26;;;;;;;;;;;22.20;94.80;;;;;;5077968;28;19908;-67
2023/04/21 03:47:53;;;;;;;;;;;21.90;95.20;;;;;;5075598;28;19912;-66
2023/04/21 03:50:20;;;;;;;;;;;21.70;95.60;;;;;;5077757;28;19908;-66
2023/04/21 03:52:47;;;;;;;;;;;21.50;96.40;;;;;;5073347;28;20101;-66
2023/04/21 03:55:13;;;;;;;;;;;21.40;97.00;;;;;;5060106;28;19912;-66
2023/04/21 03:57:41;;;;;;;;;;;21.20;97.70;;;;;;5076212;28;19908;-66
2023/04/21 04:00:11;;;;;;;;;;;21.10;98.10;;;;;;5075671;28;20838;-66
2023/04/21 04:02:38;;;;;;;;;;;21.00;98.70;;;;;;5075525;28;19995;-64
2023/04/21 04:05:05;;;;;;;;;;;20.90;98.50;;;;;;5073191;28;19908;-65
2023/04/21 04:07:32;;;;;;;;;;;20.90;98.60;;;;;;5077976;28;19908;-66
2023/04/21 04:09:58;;;;;;;;;;;20.80;99.50;;;;;;5073642;28;19916;-66
2023/04/21 04:12:25;;;;;;;;;;;20.80;99.90;;;;;;5077367;28;19915;-66
2023/04/21 04:14:52;;;;;;;;;;;20.70;99.90;;;;;;5072974;28;19926;-67
2023/04/21 04:17:18;;;;;;;;;;;20.70;99.90;;;;;;5077985;28;19955;-67
2023/04/21 04:19:45;;;;;;;;;;;20.70;99.90;;;;;;5077266;28;19916;-67
2023/04/21 04:22:12;;;;;;;;;;;20.70;99.90;;;;;;5075561;28;20757;-65
2023/04/21 04:24:38;;;;;;;;;;;20.70;99.90;;;;;;5078974;28;19922;-66
2023/04/21 04:27:05;;;;;;;;;;;20.80;99.90;;;;;;5074893;28;19908;-66
2023/04/21 04:29:32;;;;;;;;;;;21.00;99.90;;;;;;5079192;28;19919;-66
2023/04/21 04:32:00;;;;;;;;;;;21.30;99.90;;;;;;5075293;28;20273;-67
2023/04/21 04:34:27;;;;;;;;;;;21.60;99.90;;;;;;5077460;28;19951;-69
2023/04/21 04:36:56;;;;;;;;;;;22.00;99.90;;;;;;5075077;28;20335;-68
2023/04/21 04:39:24;;;;;;;;;;;22.70;99.00;;;;;;5077490;28;19924;-65
2023/04/21 04:41:51;;;;;;;;;;;23.50;98.00;;;;;;5075723;28;19912;-67
2023/04/21 04:44:18;;;;;;;;;;;25.40;95.20;;;;;;5078181;28;19915;-67
2023/04/21 04:46:44;;;;;;;;;;;27.30;91.60;;;;;;5077575;28;19908;-66
2023/04/21 04:49:11;;;;;;;;;;;28.80;89.10;;;;;;5074097;28;20060;-68
2023/04/21 04:51:38;;;;;;;;;;;29.50;85.30;;;;;;5078146;28;20002;-67
2023/04/21 04:54:04;;;;;;;;;;;29.30;84.90;;;;;;5075911;28;19999;-67
2023/04/21 04:56:31;;;;;;;;;;;29.80;85.70;;;;;;5076159;28;19912;-66
2023/04/21 04:58:58;;;;;;;;;;;30.60;81.40;;;;;;5077249;28;19908;-67
2023/04/21 05:01:29;;;;;;;;;;;31.50;79.10;;;;;;5072181;28;19920;-66
2023/04/21 05:03:56;;;;;;;;;;;31.70;76.80;;;;;;5076756;28;19908;-67
2023/04/21 05:06:23;;;;;;;;;;;32.20;76.40;;;;;;5073603;28;19955;-64
2023/04/21 05:08:49;;;;;;;;;;;33.00;75.20;;;;;;5077436;28;19908;-66
2023/04/21 05:11:16;;;;;;;;;;;33.70;73.40;;;;;;5072588;28;20410;-68
2023/04/21 05:13:44;;;;;;;;;;;33.90;72.70;;;;;;5075926;28;19999;-68
2023/04/21 05:16:10;;;;;;;;;;;34.00;72.60;;;;;;5075669;28;19909;-65
2023/04/21 05:18:37;;;;;;;;;;;34.50;70.90;;;;;;5079103;28;19921;-68
2023/04/21 05:21:03;;;;;;;;;;;34.50;69.40;;;;;;5079661;28;19916;-69
2023/04/21 05:23:30;;;;;;;;;;;34.20;69.90;;;;;;5059267;28;19912;-65
2023/04/21 05:25:57;;;;;;;;;;;34.20;70.10;;;;;;5080760;28;19960;-65
2023/04/21 05:28:23;;;;;;;;;;;34.60;69.50;;;;;;5059792;28;19916;-65
2023/04/21 05:30:50;;;;;;;;;;;35.10;68.60;;;;;;5080509;28;20065;-65
2023/04/21 05:33:20;;;;;;;;;;;34.90;68.30;;;;;;5078054;28;19912;-67
2023/04/21 05:35:47;;;;;;;;;;;34.90;67.80;;;;;;5078536;28;19996;-68
2023/04/21 05:38:13;;;;;;;;;;;34.50;68.00;;;;;;5079277;28;20357;-66
2023/04/21 05:40:40;;;;;;;;;;;33.90;69.20;;;;;;5077624;28;20011;-67
2023/04/21 05:43:07;;;;;;;;;;;33.30;69.90;;;;;;5079671;28;20718;-66
2023/04/21 05:45:37;;;;;;;;;;;32.30;71.40;;;;;;5076742;28;19919;-68
2023/04/21 05:48:04;;;;;;;;;;;30.70;73.70;;;;;;5079283;28;19912;-67
2023/04/21 05:50:34;;;;;;;;;;;29.00;76.80;;;;;;5077194;28;19958;-66
2023/04/21 05:53:01;;;;;;;;;;;27.50;80.20;;;;;;5078067;28;20364;-66
2023/04/21 05:55:28;;;;;;;;;;;26.50;82.90;;;;;;5077098;28;19919;-66
2023/04/21 05:57:58;;;;;;;;;;;25.60;85.40;;;;;;5078049;28;20564;-68
2023/04/21 06:00:25;;;;;;;;;;;25.00;87.80;;;;;;5061226;28;19946;-68
2023/04/21 06:02:51;;;;;;;;;;;24.50;90.00;;;;;;5075120;28;19915;-68
2023/04/21 06:05:18;;;;;;;;;;;24.10;90.80;;;;;;5078695;28;20002;-65
2023/04/21 06:07:45;;;;;;;;;;;23.80;90.90;;;;;;5077433;28;19912;-67
2023/04/21 06:10:13;;;;;;;;;;;23.70;91.40;;;;;;5076027;28;20032;-65
2023/04/21 06:12:39;;;;;;;;;;;23.60;91.70;;;;;;5075015;28;20133;-67
2023/04/21 06:15:06;;;;;;;;;;;23.30;92.40;;;;;;5076364;28;19916;-68
2023/04/21 06:17:33;;;;;;;;;;;23.00;92.80;;;;;;5077915;28;19919;-67
2023/04/21 06:19:59;;;;;;;;;;;22.70;93.80;;;;;;5075097;28;20028;-67
2023/04/21 06:22:26;;;;;;;;;;;22.40;94.30;;;;;;5077838;28;19919;-68
2023/04/21 06:25:03;;;;;;;;;;;22.20;95.20;;;;;;5074026;28;19957;-67
2023/04/21 06:27:30;;;;;;;;;;;22.20;95.30;;;;;;5076362;28;19942;-68
2023/04/21 06:29:56;;;;;;;;;;;22.00;95.90;;;;;;5055456;28;20061;-67
2023/04/21 06:32:23;;;;;;;;;;;21.90;95.90;;;;;;5076970;28;19919;-67
2023/04/21 06:34:50;;;;;;;;;;;21.80;96.20;;;;;;5072854;28;19946;-67
2023/04/21 06:37:16;;;;;;;;;;;21.70;96.60;;;;;;5076045;28;20006;-68
2023/04/21 06:39:44;;;;;;;;;;;21.60;96.90;;;;;;5074466;28;20392;-68
2023/04/21 06:42:11;;;;;;;;;;;21.60;97.20;;;;;;5072744;28;19912;-67
2023/04/21 06:44:37;;;;;;;;;;;21.40;97.30;;;;;;5077090;28;20482;-68
2023/04/21 06:47:04;;;;;;;;;;;21.30;97.60;;;;;;5074241;28;20692;-68
2023/04/21 06:49:33;;;;;;;;;;;21.30;97.80;;;;;;5077132;28;19936;-68
2023/04/21 06:51:59;;;;;;;;;;;21.30;98.00;;;;;;5073201;28;20381;-68
2023/04/21 06:54:26;;;;;;;;;;;21.20;98.10;;;;;;5075496;28;20511;-67
2023/04/21 06:56:52;;;;;;;;;;;21.10;98.50;;;;;;5072259;28;20424;-67
2023/04/21 06:59:19;;;;;;;;;;;21.10;98.70;;;;;;5074500;28;19915;-68
2023/04/21 07:01:47;;;;;;;;;;;21.00;98.80;;;;;;5075129;28;19962;-69
2023/04/21 07:04:14;;;;;;;;;;;20.90;99.00;;;;;;5074642;28;19920;-67
2023/04/21 07:06:42;;;;;;;;;;;20.90;99.50;;;;;;5076706;28;19919;-67
2023/04/21 07:09:09;;;;;;;;;;;20.90;99.60;;;;;;5075385;28;19939;-65
2023/04/21 07:11:35;;;;;;;;;;;20.80;99.70;;;;;;5077818;28;19915;-68
2023/04/21 07:14:02;;;;;;;;;;;20.70;99.80;;;;;;5074222;28;19909;-67
2023/04/21 07:16:29;;;;;;;;;;;20.70;99.90;;;;;;5077885;28;19908;-68
2023/04/21 07:18:55;;;;;;;;;;;20.60;99.90;;;;;;5075539;28;19921;-68
2023/04/21 07:21:22;;;;;;;;;;;20.60;99.90;;;;;;5077826;28;19924;-66
2023/04/21 07:23:49;;;;;;;;;;;20.50;99.90;;;;;;5077000;28;20627;-68
2023/04/21 07:26:16;;;;;;;;;;;20.50;99.90;;;;;;5076977;28;19908;-66
2023/04/21 07:28:43;;;;;;;;;;;20.50;99.90;;;;;;5077774;28;20371;-67
2023/04/21 07:31:10;;;;;;;;;;;20.40;99.90;;;;;;5075486;28;19920;-66
2023/04/21 07:33:36;;;;;;;;;;;20.40;99.90;;;;;;5078772;28;19908;-69
2023/04/21 07:36:03;;;;;;;;;;;20.30;99.90;;;;;;5075797;28;19908;-67
2023/04/21 07:38:30;;;;;;;;;;;20.30;99.90;;;;;;5078538;28;20050;-67
2023/04/21 07:40:56;;;;;;;;;;;20.30;99.90;;;;;;5074949;28;20010;-67
2023/04/21 07:43:24;;;;;;;;;;;20.20;99.90;;;;;;5063383;28;19918;-69
2023/04/21 07:45:51;;;;;;;;;;;20.20;99.90;;;;;;5076556;28;19908;-67
2023/04/21 07:48:18;;;;;;;;;;;20.20;99.90;;;;;;5076844;28;19912;-67
2023/04/21 07:50:44;;;;;;;;;;;20.20;99.90;;;;;;5077449;28;19953;-67
2023/04/21 07:53:11;;;;;;;;;;;20.20;99.90;;;;;;5074628;28;19912;-68
2023/04/21 07:55:38;;;;;;;;;;;20.20;99.90;;;;;;5078054;28;19995;-65
2023/04/21 07:58:05;;;;;;;;;;;20.20;99.90;;;;;;5075543;28;19909;-68
2023/04/21 08:00:31;;;;;;;;;;;20.10;99.90;;;;;;5076990;28;19920;-64
2023/04/21 08:02:58;;;;;;;;;;;20.10;99.90;;;;;;5075787;28;20031;-65
2023/04/21 08:05:25;;;;;;;;;;;20.00;99.90;;;;;;5076653;28;20259;-66
2023/04/21 08:07:51;;;;;;;;;;;20.00;99.90;;;;;;5077442;28;19912;-66
2023/04/21 08:10:18;;;;;;;;;;;20.10;99.90;;;;;;5074702;28;19908;-65
2023/04/21 08:12:45;;;;;;;;;;;20.00;99.90;;;;;;5077470;28;20010;-64
2023/04/21 08:15:12;;;;;;;;;;;20.00;99.90;;;;;;5074280;28;20494;-68
2023/04/21 08:17:38;;;;;;;;;;;20.00;99.90;;;;;;5078371;28;19999;-67
2023/04/21 08:20:05;;;;;;;;;;;20.00;99.90;;;;;;5075701;28;20011;-65
2023/04/21 08:22:32;;;;;;;;;;;19.90;99.90;;;;;;5075761;28;20011;-67
2023/04/21 08:24:59;;;;;;;;;;;20.00;99.90;;;;;;5074209;28;19952;-67
2023/04/21 08:27:26;;;;;;;;;;;20.00;99.90;;;;;;5074801;28;20375;-68
2023/04/21 08:29:52;;;;;;;;;;;19.90;99.90;;;;;;5076116;28;19919;-67
2023/04/21 08:32:23;;;;;;;;;;;19.90;99.90;;;;;;5070223;28;19961;-66
2023/04/21 08:34:50;;;;;;;;;;;19.90;99.90;;;;;;5076841;28;19919;-67
2023/04/21 08:37:20;;;;;;;;;;;19.80;99.90;;;;;;5072679;28;19919;-69
2023/04/21 08:39:49;;;;;;;;;;;19.80;99.90;;;;;;5075258;28;19924;-67
2023/04/21 08:42:16;;;;;;;;;;;19.80;99.90;;;;;;5072633;28;19983;-68
2023/04/21 08:44:43;;;;;;;;;;;19.80;99.90;;;;;;5076315;28;19908;-68
2023/04/21 08:47:10;;;;;;;;;;;19.90;99.90;;;;;;5073689;28;19916;-67
2023/04/21 08:49:38;;;;;;;;;;;19.80;99.90;;;;;;5075205;28;19957;-68
2023/04/21 08:52:05;;;;;;;;;;;19.80;99.90;;;;;;5073318;28;19947;-68
2023/04/21 08:54:32;;;;;;;;;;;19.80;99.90;;;;;;5074615;28;19908;-65
2023/04/21 08:56:59;;;;;;;;;;;19.80;99.90;;;;;;5076208;28;20422;-66
2023/04/21 08:59:26;;;;;;;;;;;19.80;99.90;;;;;;5073151;28;20376;-66
2023/04/21 09:02:10;;;;;;;;;;;19.80;99.90;;;;;;5076222;28;20281;-67
2023/04/21 09:04:38;;;;;;;;;;;19.80;99.90;;;;;;5073748;28;20058;-65
2023/04/21 09:07:05;;;;;;;;;;;19.70;99.90;;;;;;5073826;28;19914;-67
2023/04/21 09:09:31;;;;;;;;;;;19.60;99.90;;;;;;5075424;28;20356;-67
2023/04/21 09:11:58;;;;;;;;;;;19.60;99.90;;;;;;5075702;28;19920;-65
2023/04/21 09:14:31;;;;;;;;;;;19.60;99.90;;;;;;5071709;28;20004;-68
2023/04/21 09:17:04;;;;;;;;;;;19.50;99.90;;;;;;5072853;28;19946;-67
2023/04/21 09:19:33;;;;;;;;;;;19.40;99.90;;;;;;5074592;28;19927;-67
2023/04/21 09:22:00;;;;;;;;;;;19.40;99.90;;;;;;5054606;28;19923;-68
2023/04/21 09:24:27;;;;;;;;;;;19.40;99.90;;;;;;5074297;28;19933;-68
2023/04/21 09:26:54;;;;;;;;;;;19.30;99.90;;;;;;5071463;28;20106;-66
2023/04/21 09:29:24;;;;;;;;;;;19.20;99.90;;;;;;5072402;28;19912;-66
2023/04/21 09:31:51;;;;;;;;;;;19.20;99.90;;;;;;5074095;28;20003;-66
2023/04/21 09:34:19;;;;;;;;;;;19.20;99.90;;;;;;5073873;28;19923;-68
2023/04/21 09:36:46;;;;;;;;;;;19.10;99.90;;;;;;5073352;28;20675;-65
2023/04/21 09:39:13;;;;;;;;;;;19.00;99.90;;;;;;5073612;28;20049;-68
2023/04/21 09:41:40;;;;;;;;;;;19.00;99.90;;;;;;5075209;28;20375;-67
2023/04/21 09:44:07;;;;;;;;;;;18.90;99.90;;;;;;5073319;28;20422;-66
2023/04/21 09:46:34;;;;;;;;;;;18.80;99.90;;;;;;5075638;28;19908;-64
2023/04/21 09:49:01;;;;;;;;;;;18.80;99.90;;;;;;5075716;28;19999;-66
2023/04/21 09:51:30;;;;;;;;;;;18.80;99.90;;;;;;5074240;28;19914;-65
2023/04/21 09:53:58;;;;;;;;;;;18.70;99.90;;;;;;5074180;28;19912;-67
2023/04/21 09:56:29;;;;;;;;;;;18.70;99.90;;;;;;5074618;28;19916;-66
2023/04/21 09:58:57;;;;;;;;;;;18.60;99.90;;;;;;5075157;28;19912;-66
2023/04/21 10:01:25;;;;;;;;;;;18.60;99.90;;;;;;5075179;28;19916;-63
2023/04/21 10:03:52;;;;;;;;;;;18.50;99.90;;;;;;5076683;28;19958;-66
2023/04/21 10:06:19;;;;;;;;;;;18.50;99.90;;;;;;5078194;28;20450;-65
2023/04/21 10:08:46;;;;;;;;;;;18.50;99.90;;;;;;5078513;28;19915;-65
2023/04/21 10:11:13;;;;;;;;;;;18.40;99.90;;;;;;5079414;28;19908;-68
2023/04/21 10:13:41;;;;;;;;;;;18.40;99.90;;;;;;5078964;28;19915;-67
2023/04/21 10:16:10;;;;;;;;;;;18.30;99.90;;;;;;5079123;28;19915;-67
2023/04/21 10:18:38;;;;;;;;;;;18.30;99.90;;;;;;5079174;28;19912;-64
2023/04/21 10:21:06;;;;;;;;;;;18.20;99.90;;;;;;5077995;28;19916;-67
2023/04/21 10:23:33;;;;;;;;;;;18.20;99.90;;;;;;5077485;28;19956;-68
2023/04/21 10:26:09;;;;;;;;;;;18.10;99.90;;;;;;5077110;28;19920;-66
2023/04/21 10:28:44;;;;;;;;;;;18.10;99.90;;;;;;5076945;28;19912;-67
2023/04/21 10:31:20;;;;;;;;;;;18.00;99.90;;;;;;5079148;28;20665;-66
2023/04/21 10:34:12;;;;;;;;;;;17.90;99.90;;;;;;5078221;28;19919;-67
2023/04/21 10:37:02;;;;;;;;;;;17.80;99.90;;;;;;5076012;28;19915;-66
2023/04/21 10:39:34;;;;;;;;;;;17.80;99.90;;;;;;5069425;28;19924;-67
2023/04/21 10:42:13;;;;;;;;;;;17.70;99.90;;;;;;5077821;28;19919;-64
2023/04/21 10:44:43;;;;;;;;;;;17.70;99.90;;;;;;5077878;28;19955;-66
2023/04/21 10:47:10;;;;;;;;;;;17.60;99.90;;;;;;5077550;28;19912;-67
2023/04/21 10:49:40;;;;;;;;;;;17.60;99.90;;;;;;5076767;28;20433;-66
2023/04/21 10:52:07;;;;;;;;;;;17.50;99.90;;;;;;5078121;28;19983;-66
2023/04/21 10:54:56;;;;;;;;;;;17.50;99.90;;;;;;5077960;28;19908;-66
2023/04/21 10:57:23;;;;;;;;;;;17.50;99.90;;;;;;5071684;28;19912;-66
2023/04/21 10:59:50;;;;;;;;;;;17.50;99.90;;;;;;5078098;28;19912;-67
2023/04/21 11:02:17;;;;;;;;;;;17.40;99.90;;;;;;5077387;28;19987;-68
2023/04/21 11:04:46;;;;;;;;;;;17.40;99.90;;;;;;5077278;28;19919;-66
2023/04/21 11:07:15;;;;;;;;;;;17.40;99.90;;;;;;5076739;28;20018;-64
2023/04/21 11:09:42;;;;;;;;;;;17.40;99.90;;;;;;5075977;28;20662;-69
2023/04/21 11:12:10;;;;;;;;;;;17.40;99.90;;;;;;5077386;28;19911;-66
2023/04/21 11:14:37;;;;;;;;;;;17.40;99.90;;;;;;5076596;28;19919;-65
2023/04/21 11:17:05;;;;;;;;;;;17.40;99.90;;;;;;5076560;28;19951;-66
2023/04/21 11:19:31;;;;;;;;;;;17.30;99.90;;;;;;5076266;28;19916;-66
2023/04/21 11:21:58;;;;;;;;;;;17.30;99.90;;;;;;5076112;28;19916;-67
2023/04/21 11:24:25;;;;;;;;;;;17.30;99.90;;;;;;5078026;28;19916;-68
2023/04/21 11:26:52;;;;;;;;;;;17.30;99.90;;;;;;5058776;28;20277;-65
2023/04/21 11:29:18;;;;;;;;;;;17.20;99.90;;;;;;5077069;28;19973;-66
2023/04/21 11:31:47;;;;;;;;;;;17.20;99.90;;;;;;5075966;28;20108;-65
2023/04/21 11:34:17;;;;;;;;;;;17.20;99.90;;;;;;5075401;28;19921;-67
2023/04/21 11:36:45;;;;;;;;;;;17.20;99.90;;;;;;5076102;28;19923;-67
2023/04/21 11:39:14;;;;;;;;;;;17.10;99.90;;;;;;5076019;28;20380;-67
2023/04/21 11:41:44;;;;;;;;;;;17.00;99.90;;;;;;5077118;28;19924;-68
2023/04/21 11:44:11;;;;;;;;;;;17.10;99.90;;;;;;5076491;28;19995;-69
2023/04/21 11:46:47;;;;;;;;;;;17.00;99.90;;;;;;5077846;28;19957;-68
2023/04/21 11:49:15;;;;;;;;;;;17.00;99.90;;;;;;5077085;28;19926;-67
2023/04/21 11:51:43;;;;;;;;;;;17.00;99.90;;;;;;5077369;28;19908;-67
2023/04/21 11:54:11;;;;;;;;;;;16.90;99.90;;;;;;5078332;28;19963;-68
2023/04/21 11:56:38;;;;;;;;;;;16.90;99.90;;;;;;5076376;28;20353;-67
2023/04/21 11:59:09;;;;;;;;;;;16.90;99.90;;;;;;5076124;28;20360;-67
2023/04/21 12:01:49;;;;;;;;;;;16.90;99.90;;;;;;5076059;28;19916;-68
2023/04/21 12:04:20;;;;;;;;;;;16.90;99.90;;;;;;5076952;28;19908;-64
2023/04/21 12:06:47;;;;;;;;;;;17.00;99.90;;;;;;5075346;28;19916;-65
2023/04/21 12:09:18;;;;;;;;;;;17.00;99.90;;;;;;5077083;28;20407;-65
2023/04/21 12:11:47;;;;;;;;;;;17.00;99.90;;;;;;5075231;28;19912;-67
2023/04/21 12:14:15;;;;;;;;;;;17.00;99.90;;;;;;5077610;28;19941;-65
2023/04/21 12:16:42;;;;;;;;;;;17.00;99.90;;;;;;5067503;28;19912;-67
2023/04/21 12:19:08;;;;;;;;;;;17.20;99.90;;;;;;5076321;28;19908;-65
2023/04/21 12:21:38;;;;;;;;;;;17.20;99.90;;;;;;5076663;28;19931;-66
2023/04/21 12:24:05;;;;;;;;;;;17.20;99.90;;;;;;5074877;28;20040;-68
2023/04/21 12:26:31;;;;;;;;;;;17.30;99.90;;;;;;5075676;28;19915;-69
2023/04/21 12:28:59;;;;;;;;;;;17.30;99.90;;;;;;5074737;28;20519;-69
2023/04/21 12:31:26;;;;;;;;;;;17.40;99.90;;;;;;5076588;28;19989;-66
2023/04/21 12:33:52;;;;;;;;;;;17.40;99.90;;;;;;5075580;28;20926;-66
2023/04/21 12:36:19;;;;;;;;;;;17.50;99.90;;;;;;5077209;28;19908;-67
2023/04/21 12:38:46;;;;;;;;;;;17.50;99.90;;;;;;5075661;28;20000;-67
2023/04/21 12:41:12;;;;;;;;;;;17.60;99.90;;;;;;5075098;28;19989;-67
2023/04/21 12:43:39;;;;;;;;;;;17.50;99.90;;;;;;5076867;28;20833;-66
2023/04/21 12:46:06;;;;;;;;;;;17.60;99.90;;;;;;5075362;28;19915;-67
2023/04/21 12:48:33;;;;;;;;;;;17.70;99.90;;;;;;5077004;28;20326;-68
2023/04/21 12:51:00;;;;;;;;;;;17.70;99.90;;;;;;5074534;28;19915;-66
2023/04/21 12:53:26;;;;;;;;;;;17.80;99.90;;;;;;5076321;28;19912;-67
2023/04/21 12:55:53;;;;;;;;;;;17.70;99.90;;;;;;5076513;28;20268;-67
2023/04/21 12:58:20;;;;;;;;;;;17.80;99.90;;;;;;5075804;28;19951;-66
2023/04/21 13:00:46;;;;;;;;;;;17.80;99.90;;;;;;5076486;28;19923;-64
2023/04/21 13:03:13;;;;;;;;;;;17.80;99.90;;;;;;5074953;28;19912;-67
2023/04/21 13:05:40;;;;;;;;;;;17.80;99.90;;;;;;5076860;28;19974;-67
2023/04/21 13:08:06;;;;;;;;;;;17.90;99.90;;;;;;5074805;28;19912;-67
2023/04/21 13:10:33;;;;;;;;;;;17.90;99.90;;;;;;5076802;28;20253;-67
2023/04/21 13:13:00;;;;;;;;;;;17.90;99.90;;;;;;5074842;28;19916;-67
2023/04/21 13:15:26;;;;;;;;;;;17.90;99.90;;;;;;5076694;28;20349;-68
2023/04/21 13:17:53;;;;;;;;;;;18.00;99.90;;;;;;5077311;28;19915;-68
2023/04/21 13:20:20;;;;;;;;;;;18.00;99.90;;;;;;5075323;28;19920;-69
2023/04/21 13:22:46;;;;;;;;;;;18.00;99.90;;;;;;5076196;28;20280;-69
2023/04/21 13:25:13;;;;;;;;;;;18.00;99.90;;;;;;5074902;28;19912;-67
2023/04/21 13:27:40;;;;;;;;;;;18.00;99.90;;;;;;5077546;28;20287;-67
2023/04/21 13:30:07;;;;;;;;;;;18.00;99.90;;;;;;5055518;28;19919;-68
2023/04/21 13:32:33;;;;;;;;;;;18.10;99.90;;;;;;5077395;28;19920;-69
2023/04/21 13:35:00;;;;;;;;;;;18.00;99.90;;;;;;5074836;28;20756;-67
2023/04/21 13:37:27;;;;;;;;;;;18.00;99.90;;;;;;5076782;28;19916;-67
2023/04/21 13:39:53;;;;;;;;;;;18.00;99.90;;;;;;5078961;28;20371;-66
2023/04/21 13:42:20;;;;;;;;;;;18.00;99.90;;;;;;5078120;28;20416;-67
2023/04/21 13:44:47;;;;;;;;;;;17.90;99.90;;;;;;5062247;28;19908;-68
2023/04/21 13:47:14;;;;;;;;;;;17.90;99.90;;;;;;5078462;28;19916;-67
2023/04/21 13:49:40;;;;;;;;;;;17.90;99.90;;;;;;5080799;28;19955;-67
2023/04/21 13:52:07;;;;;;;;;;;17.90;99.90;;;;;;5077013;28;20182;-68
2023/04/21 13:54:34;;;;;;;;;;;17.90;99.90;;;;;;5080686;28;19943;-69
2023/04/21 13:57:00;;;;;;;;;;;17.90;99.90;;;;;;5079715;28;20304;-67
2023/04/21 13:59:27;;;;;;;;;;;17.80;99.90;;;;;;5078004;28;19908;-66
2023/04/21 14:01:54;;;;;;;;;;;17.80;99.90;;;;;;5079070;28;20144;-68
2023/04/21 14:04:21;;;;;;;;;;;17.80;99.90;;;;;;5078783;28;19908;-68
2023/04/21 14:06:48;;;;;;;;;;;17.70;99.90;;;;;;5079742;28;20284;-67
2023/04/21 14:09:15;;;;;;;;;;;17.60;99.90;;;;;;5079236;28;19912;-66
2023/04/21 14:11:41;;;;;;;;;;;17.70;99.90;;;;;;5078526;28;19908;-68
2023/04/21 14:14:08;;;;;;;;;;;17.60;99.90;;;;;;5078794;28;20366;-68
2023/04/21 14:16:35;;;;;;;;;;;17.60;99.90;;;;;;5078500;28;19940;-67